createdAt,value
2019-05-30T00:04:41.216Z,79.53
2019-05-30T00:09:48.033Z,79.64
2019-05-30T00:14:54.523Z,79.52
2019-05-30T00:20:03.159Z,79.67
2019-05-30T00:25:10.245Z,80.77
2019-05-30T00:30:24.586Z,80.47
2019-05-30T00:35:24.476Z,81.12
2019-05-30T00:40:30.668Z,82.07
2019-05-30T00:45:37.364Z,81.12
2019-05-30T00:50:44.234Z,80.35
2019-05-30T00:55:51.383Z,80.08
2019-05-30T01:00:59.043Z,81.60
2019-05-30T01:06:05.346Z,81.72
2019-05-30T01:11:11.748Z,81.86
2019-05-30T01:16:18.484Z,81.54
2019-05-30T01:21:25.171Z,82.23
2019-05-30T01:26:31.644Z,82.47
2019-05-30T01:31:38.539Z,81.54
2019-05-30T01:36:45.650Z,80.89
2019-05-30T01:41:52.140Z,81.62
2019-05-30T01:46:58.418Z,81.47
2019-05-30T01:52:04.873Z,81.77
2019-05-30T01:57:11.581Z,81.35
2019-05-30T02:02:18.373Z,82.09
2019-05-30T02:07:24.864Z,81.86
2019-05-30T02:12:31.445Z,81.77
2019-05-30T02:17:37.731Z,82.87
2019-05-30T02:22:44.324Z,83.17
2019-05-30T02:27:51.255Z,83.89
2019-05-30T02:32:57.913Z,84.21
2019-05-30T02:38:05.233Z,83.40
2019-05-30T02:43:12.522Z,82.32
2019-05-30T02:48:18.721Z,83.30
2019-05-30T02:53:25.260Z,83.17
2019-05-30T02:58:31.993Z,82.41
2019-05-30T03:03:38.870Z,81.93
2019-05-30T03:08:45.232Z,83.58
2019-05-30T03:13:51.598Z,84.36
2019-05-30T03:18:58.513Z,82.81
2019-05-30T03:24:05.676Z,82.30
2019-05-30T03:29:14.340Z,83.30
2019-05-30T03:34:27.786Z,85.43
2019-05-30T03:39:29.473Z,85.72
2019-05-30T03:44:35.842Z,84.71
2019-05-30T03:49:44.792Z,85.39
2019-05-30T03:54:52.051Z,86.17
2019-05-30T04:00:06.143Z,86.24
2019-05-30T04:05:16.357Z,86.59
2019-05-30T04:10:25.455Z,87.61
2019-05-30T04:15:35.399Z,85.28
2019-05-30T04:20:44.017Z,84.35
2019-05-30T04:25:51.040Z,86.09
2019-05-30T04:30:57.838Z,85.97
2019-05-30T04:36:04.468Z,84.51
2019-05-30T04:41:13.279Z,82.83
2019-05-30T04:46:21.772Z,81.78
2019-05-30T04:51:27.911Z,82.47
2019-05-30T04:56:34.210Z,82.90
2019-05-30T05:01:40.654Z,81.28
2019-05-30T05:06:47.427Z,81.31
2019-05-30T05:11:54.152Z,81.05
2019-05-30T05:17:00.350Z,79.37
2019-05-30T05:22:07.484Z,80.15
2019-05-30T05:27:13.650Z,81.52
2019-05-30T05:32:20.473Z,78.64
2019-05-30T05:37:27.446Z,80.19
2019-05-30T05:42:33.881Z,79.95
2019-05-30T05:47:40.051Z,79.77
2019-05-30T05:52:46.861Z,76.08
2019-05-30T05:57:53.953Z,76.63
2019-05-30T06:03:00.053Z,76.56
2019-05-30T06:08:06.925Z,77.63
2019-05-30T06:13:14.008Z,79.32
2019-05-30T06:18:20.295Z,78.53
2019-05-30T06:23:27.806Z,73.32
2019-05-30T06:28:34.309Z,73.11
2019-05-30T06:33:41.215Z,75.23
2019-05-30T06:38:47.697Z,73.54
2019-05-30T06:43:53.837Z,74.76
2019-05-30T06:49:01.265Z,71.16
2019-05-30T06:54:08.155Z,69.81
2019-05-30T06:59:14.321Z,68.25
2019-05-30T07:04:21.087Z,69.76
2019-05-30T07:09:29.165Z,68.38
2019-05-30T07:14:35.845Z,69.29
2019-05-30T07:19:42.319Z,68.80
2019-05-30T07:24:49.821Z,64.74
2019-05-30T07:29:56.477Z,66.43
2019-05-30T07:35:07.230Z,66.08
2019-05-30T07:40:11.599Z,63.79
2019-05-30T07:45:18.157Z,62.83
2019-05-30T07:50:24.713Z,58.85
2019-05-30T07:55:31.469Z,59.26
2019-05-30T08:00:38.291Z,62.69
2019-05-30T08:05:44.675Z,60.52
2019-05-30T08:10:51.820Z,61.06
2019-05-30T08:15:57.947Z,58.61
2019-05-30T08:21:04.061Z,60.68
2019-05-30T08:26:10.241Z,57.49
2019-05-30T08:31:17.098Z,60.10
2019-05-30T08:36:23.951Z,59.31
2019-05-30T08:41:31.135Z,57.54
2019-05-30T08:46:37.939Z,58.01
2019-05-30T08:51:44.808Z,56.78
2019-05-30T08:56:51.729Z,56.11
2019-05-30T09:01:58.501Z,52.60
2019-05-30T09:07:04.669Z,49.19
2019-05-30T09:12:11.436Z,47.86
2019-05-30T09:17:17.549Z,48.05
2019-05-30T09:22:24.647Z,45.16
2019-05-30T09:27:31.628Z,44.34
2019-05-30T09:32:39.599Z,46.14
2019-05-30T09:37:47.819Z,45.61
2019-05-30T09:42:54.192Z,46.38
2019-05-30T09:48:00.525Z,44.32
2019-05-30T09:53:06.631Z,43.17
2019-05-30T09:58:12.960Z,41.00
2019-05-30T10:03:19.131Z,40.64
2019-05-30T10:08:25.675Z,37.33
2019-05-30T10:13:31.882Z,38.50
2019-05-30T10:18:38.227Z,40.09
2019-05-30T10:23:47.190Z,39.77
2019-05-30T10:28:53.521Z,37.67
2019-05-30T10:33:59.722Z,38.78
2019-05-30T10:39:07.736Z,37.03
2019-05-30T10:44:13.940Z,37.03
2019-05-30T10:49:33.606Z,34.24
2019-05-30T10:54:28.193Z,35.85
2019-05-30T10:59:34.743Z,34.36
2019-05-30T11:04:40.911Z,35.23
2019-05-30T11:09:52.720Z,32.64
2019-05-30T11:14:59.249Z,34.19
2019-05-30T11:20:06.939Z,34.58
2019-05-30T11:25:13.123Z,32.51
2019-05-30T11:30:19.631Z,33.46
2019-05-30T11:35:26.028Z,34.30
2019-05-30T11:40:32.802Z,33.74
2019-05-30T11:45:39.767Z,35.01
2019-05-30T11:50:46.289Z,35.46
2019-05-30T11:55:54.067Z,38.49
2019-05-30T12:01:00.726Z,36.19
2019-05-30T12:06:07.088Z,34.50
2019-05-30T12:11:13.863Z,34.60
2019-05-30T12:16:20.388Z,31.72
2019-05-30T12:21:29.757Z,37.39
2019-05-30T12:26:35.281Z,30.94
2019-05-30T12:31:42.309Z,34.44
2019-05-30T12:36:49.111Z,34.71
2019-05-30T12:41:56.801Z,34.02
2019-05-30T12:47:03.516Z,36.05
2019-05-30T12:52:10.043Z,33.52
2019-05-30T12:57:16.531Z,31.73
2019-05-30T13:02:22.984Z,32.19
2019-05-30T13:07:29.956Z,32.23
2019-05-30T13:12:36.427Z,31.67
2019-05-30T13:17:43.092Z,34.17
2019-05-30T13:22:49.559Z,33.87
2019-05-30T13:27:55.883Z,35.21
2019-05-30T13:33:03.067Z,31.45
2019-05-30T13:38:09.744Z,32.09
2019-05-30T13:43:16.202Z,29.75
2019-05-30T13:48:23.017Z,30.09
2019-05-30T13:53:29.155Z,31.98
2019-05-30T13:58:35.582Z,31.25
2019-05-30T14:03:42.015Z,30.59
2019-05-30T14:08:50.702Z,29.03
2019-05-30T14:13:56.710Z,27.43
2019-05-30T14:19:03.169Z,29.23
2019-05-30T14:24:09.976Z,29.27
2019-05-30T14:29:16.084Z,29.92
2019-05-30T14:34:22.104Z,29.14
2019-05-30T14:39:28.538Z,29.65
2019-05-30T14:44:35.044Z,27.14
2019-05-30T14:49:41.143Z,28.36
2019-05-30T14:54:48.037Z,28.27
2019-05-30T14:59:54.722Z,29.63
2019-05-30T15:05:01.516Z,30.23
2019-05-30T15:10:08.690Z,32.20
2019-05-30T15:15:18.210Z,29.73
2019-05-30T15:20:23.803Z,29.16
2019-05-30T15:25:29.899Z,29.87
2019-05-30T15:30:36.326Z,29.29
2019-05-30T15:35:42.680Z,30.73
2019-05-30T15:40:49.643Z,29.37
2019-05-30T15:45:56.671Z,29.28
2019-05-30T15:51:03.348Z,29.93
2019-05-30T15:56:09.579Z,31.65
2019-05-30T16:01:16.003Z,32.33
2019-05-30T16:06:22.815Z,33.22
2019-05-30T16:11:29.340Z,32.90
2019-05-30T16:16:40.238Z,33.24
2019-05-30T16:21:44.376Z,31.92
2019-05-30T16:26:50.926Z,32.95
2019-05-30T16:31:57.498Z,33.16
2019-05-30T16:37:03.779Z,35.14
2019-05-30T16:42:10.779Z,37.28
2019-05-30T16:47:18.177Z,37.63
2019-05-30T16:52:24.978Z,36.82
2019-05-30T16:57:32.252Z,37.98
2019-05-30T17:02:38.847Z,39.58
2019-05-30T17:07:48.385Z,35.04
2019-05-30T17:12:54.237Z,35.04
2019-05-30T17:18:00.399Z,33.33
2019-05-30T17:23:06.842Z,34.06
2019-05-30T17:28:14.954Z,33.69
2019-05-30T17:33:23.187Z,32.85
2019-05-30T17:38:29.323Z,31.73
2019-05-30T17:43:35.823Z,31.53
2019-05-30T17:48:42.998Z,33.70
2019-05-30T17:53:49.440Z,33.37
2019-05-30T17:58:57.291Z,32.48
2019-05-30T18:04:03.439Z,35.27
2019-05-30T18:09:09.623Z,34.97
2019-05-30T18:14:15.871Z,34.97
2019-05-30T18:19:23.312Z,37.13
2019-05-30T18:24:30.208Z,37.82
2019-05-30T18:29:37.058Z,37.57
2019-05-30T18:34:43.572Z,38.39
2019-05-30T18:39:50.680Z,41.41
2019-05-30T18:44:57.642Z,42.80
2019-05-30T18:50:06.425Z,43.92
2019-05-30T18:55:12.611Z,48.95
2019-05-30T19:00:19.639Z,51.44
2019-05-30T19:05:26.602Z,47.89
2019-05-30T19:10:34.307Z,49.02
2019-05-30T19:15:40.504Z,47.77
2019-05-30T19:20:47.166Z,47.07
2019-05-30T19:25:53.276Z,48.72
2019-05-30T19:30:59.721Z,44.96
2019-05-30T19:36:06.338Z,48.66
2019-05-30T19:41:13.006Z,53.52
2019-05-30T19:46:19.586Z,55.16
2019-05-30T19:51:26.125Z,56.83
2019-05-30T19:56:36.474Z,55.14
2019-05-30T20:01:41.572Z,55.58
2019-05-30T20:06:47.864Z,56.76
2019-05-30T20:12:03.841Z,57.92
2019-05-30T20:17:02.101Z,58.97
2019-05-30T20:22:08.200Z,58.59
2019-05-30T20:27:14.295Z,58.03
2019-05-30T20:32:20.962Z,57.07
2019-05-30T20:37:27.415Z,57.04
2019-05-30T20:42:34.701Z,59.04
2019-05-30T20:47:42.650Z,58.08
2019-05-30T20:52:49.625Z,59.18
2019-05-30T20:57:56.465Z,59.96
2019-05-30T21:03:04.099Z,60.34
2019-05-30T21:08:10.624Z,60.57
2019-05-30T21:13:18.942Z,61.22
2019-05-30T21:18:27.388Z,63.21
2019-05-30T21:23:33.871Z,63.46
2019-05-30T21:28:40.958Z,62.22
2019-05-30T21:33:48.260Z,63.06
2019-05-30T21:38:55.280Z,66.03
2019-05-30T21:44:01.623Z,66.29
2019-05-30T21:49:08.331Z,65.78
2019-05-30T21:54:15.022Z,66.10
2019-05-30T21:59:21.819Z,65.90
2019-05-30T22:04:27.992Z,66.90
2019-05-30T22:09:34.472Z,65.10
2019-05-30T22:14:41.743Z,65.88
2019-05-30T22:19:50.038Z,64.32
2019-05-30T22:24:56.802Z,65.74
2019-05-30T22:30:03.276Z,67.28
2019-05-30T22:35:09.644Z,68.65
2019-05-30T22:40:16.010Z,69.80
2019-05-30T22:45:22.523Z,68.24
2019-05-30T22:50:29.226Z,66.89
2019-05-30T22:55:35.597Z,67.59
2019-05-30T23:00:41.980Z,68.79
2019-05-30T23:05:49.273Z,67.01
2019-05-30T23:10:55.887Z,68.88
2019-05-30T23:16:01.926Z,70.25
2019-05-30T23:21:08.637Z,70.67
2019-05-30T23:26:14.851Z,69.97
2019-05-30T23:31:21.288Z,69.85
2019-05-30T23:36:27.572Z,71.60
2019-05-30T23:41:34.268Z,72.63
2019-05-30T23:46:40.536Z,73.48
2019-05-30T23:51:47.436Z,73.90
2019-05-30T23:56:54.729Z,73.67
